メインページ
METAR-TAF:

METAR-TAF

空港 :

ランシング首都圏国際空港

ランシング, ミシガン州, アメリカ合衆国

緯度: 42-46-49N, 経度: 084-34-44W, 海抜: 262m

現時点の気象観測

当レポートは1時間2分前の05:53(UTC)に作成
南/南東の風 3kt
気温 -11°C
湿度 78%
気圧 1034 hPa
視程: 16.1km
晴天

METAR: KLAN 120553Z 15003KT 10SM CLR M11/M14 A3053 RMK AO2 SLP354 T11111139 11089 21111 50001

時間: 01:55 (06:55 UTC)

予報

当レポートは1時間15分前の05:40(UTC)に作成
予報は12日の 06時(UTC)から 13日の 06時(UTC)まで有効
西の風 7kt
視程: 10km
晴天
12日の 1700時(UTC)から
の風 11kt、最大25ktの突風を伴う
視程: 10km
高度20000ftの千切れ雲あり
12日の 2100時(UTC)から
の風 12kt、最大30ktの突風を伴う
視程: 10km
高度15000ftの千切れ雲あり

TAF: KLAN 120540Z 1206/1306 26007KT P6SM SKC FM121700 17011G25KT P6SM BKN200 FM122100 18012G30KT P6SM BKN150 WS020/21045KT

4,000以上の空港の気象観測と天気予報(METAR報とTAF報)

利用可能な観測所は地図上に黄色い丸と赤い丸で示す。

丸の上にカーソルを重ねると観測所名を参照できる。

次にクリックすると気象観測と天気予報を参照できる。

マップの切り替え:黒色「×」印の緑ボタンをクリックして拡大、「-」印の緑ボタンをクリックして縮小、緑色の三角印をクリックして隣りの地図に切り替え


METAR-TAF: